Terminal Aerodrome Forecast
Issued by NWS

Home | Current Version | Previous Version | Text Only | Print | Product List | Glossary Off
Versions: 1 2 3 4 5 6 7 8 9 10 11 12 13 14 15 16 17 18 19 20

000
FTUS43 KGRB 250500
TAFCWA
TAF
KCWA 250534Z 2506/2606 12008G15KT 1SM -SN SCT005 OVC010
      TEMPO 2506/2507 3/4SM -SN BKN005
     FM250700 10007KT 1 1/2SM -SN OVC006
      TEMPO 2508/2512 3/4SM -SN OVC003
     FM251300 25007KT P6SM OVC006
     FM251700 25012KT P6SM BKN010
     FM251900 24012G18KT P6SM SCT012 BKN050
     FM260100 27010KT P6SM BKN070
      AMD LTD TO CLD VIS AND WIND TIL 251200=

USA.gov is the U.S. government's official web portal to all federal, state and local government web resources and services.